This is the latest recevied weather packets stored in our database for station/object VK3XEM-13. If no packets are shown the sender has not sent any weather packets the latest 10 day(s).
| Time | Temp. | Humidity | Pressure | Rain* | Wind** | Luminosity | Snow |
|---|---|---|---|---|---|---|---|
| 1778230934 | 12.78° C | 82% | 1022.5 hPa | 0 mm | - | 0 W/m² | - |
| 1778230035 | 12.78° C | 83% | 1022.5 hPa | 0 mm | - | 0 W/m² | - |
| 1778229134 | 12.78° C | 84% | 1022.2 hPa | 0 mm | - | 0 W/m² | - |
| 1778228234 | 12.78° C | 84% | 1022.2 hPa | 0 mm | - | 0 W/m² | - |
| 1778227334 | 12.22° C | 83% | 1022.2 hPa | 0 mm | - | 0 W/m² | - |
| 1778226435 | 12.22° C | 83% | 1021.9 hPa | 0 mm | - | 0 W/m² | - |
| 1778225534 | 12.78° C | 82% | 1021.5 hPa | 0 mm | - | 2 W/m² | - |
| 1778224635 | 13.33° C | 81% | 1021.5 hPa | 0 mm | - | 8 W/m² | - |
| 1778223734 | 13.33° C | 80% | 1021.5 hPa | 0 mm | - | 21 W/m² | - |
| 1778222835 | 13.89° C | 78% | 1021.5 hPa | 0 mm | - | 30 W/m² | - |
| 1778221934 | 13.89° C | 77% | 1021.5 hPa | 0 mm | - | 50 W/m² | - |
| 1778221034 | 13.89° C | 77% | 1021.5 hPa | 0 mm | - | 64 W/m² | - |
| 1778220134 | 14.44° C | 76% | 1021.2 hPa | 0 mm | - | 157 W/m² | - |
| 1778219234 | 13.89° C | 77% | 1021.2 hPa | 0 mm | - | 139 W/m² | - |
| 1778218334 | 13.89° C | 78% | 1021.2 hPa | 0.25 mm | - | 133 W/m² | - |
| 1778217726 | 13.89° C | 80% | 1021.2 hPa | 0.25 mm | - | 119 W/m² | - |
| 1778216535 | 13.33° C | 83% | 1020.9 hPa | 0.25 mm | - | 204 W/m² | - |
| 1778215635 | 13.33° C | 86% | 1021.2 hPa | 0.25 mm | - | 201 W/m² | - |
| 1778214734 | 15° C | 73% | 1021.2 hPa | 0 mm | - | 149 W/m² | - |
| 1778213834 | 15.56° C | 70% | 1020.9 hPa | 0 mm | - | 519 W/m² | - |
| 1778212934 | 14.44° C | 73% | 1020.9 hPa | 0 mm | - | 232 W/m² | - |
| 1778212034 | 15° C | 73% | 1020.9 hPa | 0 mm | - | 196 W/m² | - |
| 1778211135 | 14.44° C | 76% | 1020.9 hPa | 0.25 mm | - | 272 W/m² | - |
| 1778210234 | 14.44° C | 76% | 1020.9 hPa | 0.25 mm | - | 203 W/m² | - |
| 1778209334 | 14.44° C | 76% | 1020.9 hPa | 0.25 mm | - | 396 W/m² | - |
* Rain latest hour (hover to see other rain measurements)
** Current wind speed in m/s (hover to see current wind gust speed)